createdAt,value
2019-02-05T00:00:45.708Z,7.17
2019-02-05T00:03:17.618Z,7.67
2019-02-05T00:05:46.910Z,7.58
2019-02-05T00:08:16.134Z,5.75
2019-02-05T00:10:45.373Z,6.85
2019-02-05T00:13:14.952Z,7.37
2019-02-05T00:15:44.190Z,7.62
2019-02-05T00:18:13.696Z,7.12
2019-02-05T00:20:42.937Z,7.70
2019-02-05T00:23:12.136Z,7.23
2019-02-05T00:25:41.368Z,7.60
2019-02-05T00:28:10.913Z,7.12
2019-02-05T00:30:40.140Z,7.20
2019-02-05T00:33:09.414Z,7.62
2019-02-05T00:35:38.656Z,7.87
2019-02-05T00:38:07.851Z,7.72
2019-02-05T00:40:37.060Z,7.40
2019-02-05T00:43:06.683Z,7.65
2019-02-05T00:45:35.875Z,7.87
2019-02-05T00:48:05.174Z,7.83
2019-02-05T00:50:34.369Z,8.20
2019-02-05T00:53:04.347Z,8.40
2019-02-05T00:55:33.604Z,7.87
2019-02-05T00:58:03.226Z,7.72
2019-02-05T01:00:33.164Z,8.28
2019-02-05T01:03:02.489Z,7.90
2019-02-05T01:05:31.733Z,8.28
2019-02-05T01:08:01.408Z,7.80
2019-02-05T01:10:30.903Z,7.47
2019-02-05T01:13:00.136Z,7.90
2019-02-05T01:15:29.339Z,7.62
2019-02-05T01:17:58.585Z,7.97
2019-02-05T01:20:27.849Z,8.13
2019-02-05T01:22:57.080Z,7.90
2019-02-05T01:25:26.284Z,8.18
2019-02-05T01:27:55.495Z,8.30
2019-02-05T01:30:26.912Z,9.03
2019-02-05T01:32:56.144Z,8.40
2019-02-05T01:35:25.363Z,9.10
2019-02-05T01:37:54.768Z,8.73
2019-02-05T01:40:26.449Z,8.10
2019-02-05T01:42:55.835Z,8.28
2019-02-05T01:45:25.482Z,8.53
2019-02-05T01:47:54.757Z,8.08
2019-02-05T01:50:27.906Z,9.18
2019-02-05T01:52:57.273Z,9.20
2019-02-05T01:55:26.475Z,8.85
2019-02-05T01:57:55.791Z,9.25
2019-02-05T02:00:30.808Z,9.10
2019-02-05T02:03:00.334Z,9.50
2019-02-05T02:05:29.540Z,9.10
2019-02-05T02:07:59.166Z,9.25
2019-02-05T02:10:30.159Z,9.23
2019-02-05T02:12:59.400Z,10.00
2019-02-05T02:15:29.039Z,9.03
2019-02-05T02:17:58.262Z,9.68
2019-02-05T02:20:27.468Z,9.78
2019-02-05T02:22:57.159Z,9.53
2019-02-05T02:25:26.359Z,8.38
2019-02-05T02:27:55.602Z,10.05
2019-02-05T02:30:26.942Z,8.13
2019-02-05T02:32:56.176Z,9.30
2019-02-05T02:35:25.380Z,9.60
2019-02-05T02:37:54.889Z,9.60
2019-02-05T02:40:24.128Z,9.60
2019-02-05T02:42:53.358Z,9.70
2019-02-05T02:45:22.554Z,9.53
2019-02-05T02:47:51.809Z,10.00
2019-02-05T02:50:22.179Z,9.68
2019-02-05T02:52:51.695Z,9.80
2019-02-05T02:55:20.901Z,9.38
2019-02-05T02:57:50.137Z,10.13
2019-02-05T03:00:21.170Z,9.48
2019-02-05T03:02:51.682Z,9.38
2019-02-05T03:05:23.428Z,9.43
2019-02-05T03:07:52.622Z,9.50
2019-02-05T03:10:23.755Z,9.60
2019-02-05T03:12:53.525Z,10.08
2019-02-05T03:15:22.717Z,9.70
2019-02-05T03:17:51.992Z,10.40
2019-02-05T03:20:21.227Z,10.50
2019-02-05T03:22:50.839Z,10.35
2019-02-05T03:25:21.985Z,10.55
2019-02-05T03:27:53.831Z,10.50
2019-02-05T03:30:23.728Z,10.30
2019-02-05T03:32:54.033Z,10.75
2019-02-05T03:35:24.233Z,10.98
2019-02-05T03:37:53.540Z,9.40
2019-02-05T03:40:31.707Z,10.43
2019-02-05T03:43:01.935Z,9.93
2019-02-05T03:45:31.518Z,10.70
2019-02-05T03:48:02.746Z,10.58
2019-02-05T03:50:33.848Z,10.35
2019-02-05T03:53:25.549Z,10.28
2019-02-05T03:56:19.300Z,10.08
2019-02-05T03:58:52.161Z,9.45
2019-02-05T04:01:42.518Z,9.50
2019-02-05T04:04:20.304Z,10.08
2019-02-05T04:07:07.550Z,10.28
2019-02-05T04:09:48.990Z,10.13
2019-02-05T04:12:24.595Z,10.68
2019-02-05T04:14:57.473Z,10.38
2019-02-05T04:17:44.803Z,11.70
2019-02-05T04:20:50.586Z,11.05
2019-02-05T04:23:38.077Z,10.63
2019-02-05T04:26:19.284Z,10.38
2019-02-05T04:29:09.114Z,10.38
2019-02-05T04:31:44.227Z,10.50
2019-02-05T04:34:16.735Z,10.53
2019-02-05T04:37:04.632Z,10.50
2019-02-05T04:39:43.161Z,10.93
2019-02-05T04:42:18.299Z,11.20
2019-02-05T04:45:03.346Z,10.55
2019-02-05T04:47:56.722Z,11.38
2019-02-05T04:50:38.151Z,10.28
2019-02-05T04:53:25.885Z,11.12
2019-02-05T04:56:01.294Z,11.22
2019-02-05T04:58:51.740Z,11.15
2019-02-05T05:01:33.098Z,10.98
2019-02-05T05:04:11.311Z,11.88
2019-02-05T05:07:11.286Z,11.10
2019-02-05T05:09:55.609Z,10.78
2019-02-05T05:12:25.730Z,11.18
2019-02-05T05:14:54.992Z,11.15
2019-02-05T05:17:24.219Z,11.15
2019-02-05T05:19:53.457Z,11.57
2019-02-05T05:22:22.663Z,11.22
2019-02-05T05:24:51.900Z,11.78
2019-02-05T05:27:21.198Z,11.20
2019-02-05T05:29:50.407Z,11.08
2019-02-05T05:32:19.640Z,11.25
2019-02-05T05:34:48.852Z,11.60
2019-02-05T05:37:17.159Z,11.40
2019-02-05T05:39:46.360Z,11.20
2019-02-05T05:42:15.567Z,11.33
2019-02-05T05:44:45.201Z,10.98
2019-02-05T05:47:14.392Z,11.73
2019-02-05T05:49:43.626Z,10.98
2019-02-05T05:52:12.828Z,10.95
2019-02-05T05:54:42.433Z,11.05
2019-02-05T05:57:11.676Z,10.60
2019-02-05T05:59:40.882Z,11.30
2019-02-05T06:02:10.128Z,11.67
2019-02-05T06:04:39.589Z,10.75
2019-02-05T06:07:08.806Z,11.28
2019-02-05T06:09:38.044Z,11.15
2019-02-05T06:12:07.248Z,11.18
2019-02-05T06:14:36.486Z,10.75
2019-02-05T06:17:06.179Z,10.93
2019-02-05T06:19:35.423Z,11.33
2019-02-05T06:22:04.728Z,11.53
2019-02-05T06:24:34.405Z,12.15
2019-02-05T06:27:04.238Z,11.73
2019-02-05T06:29:33.484Z,11.40
2019-02-05T06:32:02.721Z,11.78
2019-02-05T06:34:31.924Z,11.63
2019-02-05T06:37:01.173Z,11.15
2019-02-05T06:39:30.376Z,11.70
2019-02-05T06:41:59.608Z,11.85
2019-02-05T06:44:28.896Z,11.50
2019-02-05T06:46:58.281Z,11.77
2019-02-05T06:49:27.754Z,11.60
2019-02-05T06:51:56.996Z,11.57
2019-02-05T06:54:26.230Z,12.80
2019-02-05T06:56:55.761Z,12.03
2019-02-05T06:59:25.077Z,13.03
2019-02-05T07:01:54.318Z,12.63
2019-02-05T07:04:23.938Z,12.58
2019-02-05T07:06:53.267Z,13.03
2019-02-05T07:09:22.619Z,13.45
2019-02-05T07:11:51.859Z,13.40
2019-02-05T07:14:21.103Z,13.80
2019-02-05T07:16:50.377Z,13.35
2019-02-05T07:19:19.707Z,13.32
2019-02-05T07:21:49.264Z,13.90
2019-02-05T07:24:18.459Z,13.43
2019-02-05T07:26:47.724Z,13.65
2019-02-05T07:29:16.924Z,14.20
2019-02-05T07:31:46.176Z,13.88
2019-02-05T07:34:15.381Z,14.05
2019-02-05T07:36:44.992Z,14.05
2019-02-05T07:39:14.284Z,14.30
2019-02-05T07:41:43.521Z,14.58
2019-02-05T07:44:12.725Z,13.83
2019-02-05T07:46:41.938Z,14.65
2019-02-05T07:49:11.177Z,15.13
2019-02-05T07:51:40.423Z,15.10
2019-02-05T07:54:09.640Z,15.60
2019-02-05T07:56:40.682Z,15.98
2019-02-05T07:59:10.655Z,16.05
2019-02-05T08:01:40.050Z,16.20
2019-02-05T08:04:09.291Z,15.75
2019-02-05T08:06:38.506Z,16.70
2019-02-05T08:09:09.044Z,17.82
2019-02-05T08:11:41.343Z,16.80
2019-02-05T08:14:11.545Z,17.57
2019-02-05T08:16:40.758Z,17.73
2019-02-05T08:19:09.999Z,17.90
2019-02-05T08:21:39.283Z,17.50
2019-02-05T08:24:08.485Z,17.54
2019-02-05T08:26:37.739Z,17.42
2019-02-05T08:29:06.981Z,18.00
2019-02-05T08:31:36.221Z,17.90
2019-02-05T08:34:05.980Z,18.52
2019-02-05T08:36:35.574Z,19.00
2019-02-05T08:39:07.182Z,17.55
2019-02-05T08:41:37.412Z,19.00
2019-02-05T08:44:06.618Z,19.00
2019-02-05T08:46:36.040Z,18.60
2019-02-05T08:49:05.577Z,18.73
2019-02-05T08:51:34.843Z,18.90
2019-02-05T08:54:04.263Z,20.02
2019-02-05T08:56:33.521Z,20.10
2019-02-05T08:59:02.784Z,18.25
2019-02-05T09:01:31.992Z,19.80
2019-02-05T09:04:01.201Z,18.98
2019-02-05T09:06:30.438Z,18.70
2019-02-05T09:08:59.712Z,19.73
2019-02-05T09:11:28.965Z,19.25
2019-02-05T09:13:58.170Z,19.42
2019-02-05T09:16:27.412Z,18.73
2019-02-05T09:18:56.951Z,19.48
2019-02-05T09:21:26.216Z,19.67
2019-02-05T09:23:55.567Z,18.73
2019-02-05T09:26:24.783Z,18.40
2019-02-05T09:28:54.049Z,19.48
2019-02-05T09:31:23.329Z,19.73
2019-02-05T09:33:52.592Z,18.48
2019-02-05T09:36:21.974Z,18.67
2019-02-05T09:38:51.218Z,17.55
2019-02-05T09:41:20.475Z,18.85
2019-02-05T09:43:49.680Z,18.60
2019-02-05T09:46:18.940Z,17.65
2019-02-05T09:48:48.157Z,18.45
2019-02-05T09:51:17.403Z,17.95
2019-02-05T09:53:46.621Z,18.87
2019-02-05T09:56:15.866Z,18.20
2019-02-05T09:58:45.075Z,18.40
2019-02-05T10:01:14.478Z,17.60
2019-02-05T10:03:43.683Z,18.90
2019-02-05T10:06:12.928Z,17.35
2019-02-05T10:08:42.553Z,16.67
2019-02-05T10:11:11.768Z,16.32
2019-02-05T10:13:41.017Z,16.75
2019-02-05T10:16:10.221Z,16.62
2019-02-05T10:18:39.519Z,16.42
2019-02-05T10:21:08.723Z,16.52
2019-02-05T10:23:37.963Z,15.48
2019-02-05T10:26:07.605Z,15.80
2019-02-05T10:28:36.811Z,16.35
2019-02-05T10:31:06.020Z,15.80
2019-02-05T10:33:35.276Z,15.23
2019-02-05T10:36:05.049Z,15.30
2019-02-05T10:38:34.314Z,15.53
2019-02-05T10:41:04.613Z,15.94
2019-02-05T10:43:33.863Z,15.53
2019-02-05T10:46:04.188Z,22.98
2019-02-05T10:48:33.419Z,13.72
2019-02-05T10:51:02.665Z,14.85
2019-02-05T10:53:31.924Z,14.35
2019-02-05T10:56:01.145Z,15.03
2019-02-05T10:58:30.782Z,15.05
2019-02-05T11:01:00.000Z,14.93
2019-02-05T11:03:29.230Z,15.58
2019-02-05T11:05:58.440Z,15.85
2019-02-05T11:08:27.697Z,15.25
2019-02-05T11:10:56.907Z,15.78
2019-02-05T11:13:26.164Z,14.85
2019-02-05T11:15:55.434Z,15.65
2019-02-05T11:18:24.678Z,16.75
2019-02-05T11:20:53.886Z,17.05
2019-02-05T11:23:23.121Z,16.27
2019-02-05T11:25:52.338Z,17.95
2019-02-05T11:28:21.663Z,16.55
2019-02-05T11:30:51.207Z,17.77
2019-02-05T11:33:20.477Z,16.87
2019-02-05T11:35:49.683Z,17.35
2019-02-05T11:38:19.054Z,17.37
2019-02-05T11:40:48.687Z,16.30
2019-02-05T11:43:17.948Z,17.35
2019-02-05T11:45:47.231Z,18.37
2019-02-05T11:48:16.821Z,17.62
2019-02-05T11:50:46.109Z,16.45
2019-02-05T11:53:15.380Z,17.20
2019-02-05T11:55:44.732Z,18.48
2019-02-05T11:58:14.005Z,17.12
2019-02-05T12:00:44.866Z,18.30
2019-02-05T12:03:14.118Z,18.03
2019-02-05T12:05:43.332Z,17.02
2019-02-05T12:08:12.552Z,17.10
2019-02-05T12:10:41.805Z,17.87
2019-02-05T12:13:11.038Z,17.67
2019-02-05T12:15:40.246Z,18.48
2019-02-05T12:18:09.656Z,18.35
2019-02-05T12:20:38.900Z,18.60
2019-02-05T12:23:08.226Z,19.02
2019-02-05T12:25:37.438Z,19.25
2019-02-05T12:28:06.737Z,19.20
2019-02-05T12:30:44.879Z,19.80
2019-02-05T12:33:11.596Z,21.15
2019-02-05T12:35:40.802Z,20.45
2019-02-05T12:38:10.084Z,20.92
2019-02-05T12:40:39.292Z,21.25
2019-02-05T12:43:08.514Z,21.42
2019-02-05T12:45:38.613Z,21.55
2019-02-05T12:48:08.103Z,21.57
2019-02-05T12:50:39.310Z,22.95
2019-02-05T12:53:08.560Z,21.33
2019-02-05T12:55:37.808Z,22.25
2019-02-05T12:58:07.241Z,22.45
2019-02-05T13:00:38.683Z,22.73
2019-02-05T13:03:08.691Z,23.57
2019-02-05T13:05:38.251Z,24.23
2019-02-05T13:08:07.469Z,23.98
2019-02-05T13:10:39.419Z,22.82
2019-02-05T13:13:08.915Z,24.22
2019-02-05T13:15:38.136Z,24.30
2019-02-05T13:18:07.531Z,24.25
2019-02-05T13:20:37.187Z,24.12
2019-02-05T13:23:07.010Z,24.20
2019-02-05T13:25:36.214Z,26.12
2019-02-05T13:28:07.401Z,24.55
2019-02-05T13:30:37.640Z,24.23
2019-02-05T13:33:08.770Z,24.80
2019-02-05T13:35:38.024Z,26.02
2019-02-05T13:38:07.314Z,24.85
2019-02-05T13:40:36.580Z,24.37
2019-02-05T13:43:06.051Z,25.25
2019-02-05T13:45:37.468Z,25.57
2019-02-05T13:48:07.130Z,24.40
2019-02-05T13:50:36.376Z,25.88
2019-02-05T13:53:06.141Z,25.27
2019-02-05T13:55:38.203Z,24.57
2019-02-05T13:58:07.395Z,26.85
2019-02-05T14:00:45.129Z,24.60
2019-02-05T14:03:14.349Z,28.38
2019-02-05T14:05:43.676Z,25.32
2019-02-05T14:08:12.891Z,24.55
2019-02-05T14:10:46.742Z,25.80
2019-02-05T14:13:15.953Z,24.27
2019-02-05T14:15:47.834Z,25.50
2019-02-05T14:18:17.127Z,25.90
2019-02-05T14:20:46.467Z,27.42
2019-02-05T14:23:15.810Z,26.33
2019-02-05T14:25:45.095Z,26.95
2019-02-05T14:28:14.434Z,28.42
2019-02-05T14:30:52.316Z,27.05
2019-02-05T14:33:21.999Z,28.70
2019-02-05T14:35:51.250Z,29.25
2019-02-05T14:38:20.453Z,28.50
2019-02-05T14:40:49.715Z,28.62
2019-02-05T14:43:18.953Z,27.55
2019-02-05T14:45:48.343Z,28.38
2019-02-05T14:48:17.607Z,27.87
2019-02-05T14:50:47.945Z,28.27
2019-02-05T14:53:17.280Z,29.05
2019-02-05T14:55:46.500Z,28.62
2019-02-05T14:58:15.702Z,29.63
2019-02-05T15:00:45.036Z,28.57
2019-02-05T15:03:14.607Z,27.42
2019-02-05T15:05:45.104Z,28.02
2019-02-05T15:08:14.757Z,27.85
2019-02-05T15:10:43.961Z,28.83
2019-02-05T15:13:15.893Z,28.12
2019-02-05T15:15:44.513Z,29.18
2019-02-05T15:18:13.776Z,30.30
2019-02-05T15:20:47.484Z,29.12
2019-02-05T15:23:17.780Z,30.05
2019-02-05T15:25:47.029Z,30.43
2019-02-05T15:28:16.232Z,29.72
2019-02-05T15:30:45.734Z,29.48
2019-02-05T15:33:29.950Z,30.05
2019-02-05T15:36:00.829Z,30.45
2019-02-05T15:38:30.444Z,30.20
2019-02-05T15:40:59.695Z,29.87
2019-02-05T15:43:28.898Z,30.23
2019-02-05T15:45:58.191Z,30.55
2019-02-05T15:48:27.414Z,31.20
2019-02-05T15:50:56.648Z,33.55
2019-02-05T15:53:26.326Z,32.28
2019-02-05T15:55:55.579Z,31.05
2019-02-05T15:58:24.777Z,31.65
2019-02-05T16:00:54.010Z,32.45
2019-02-05T16:03:24.199Z,31.82
2019-02-05T16:05:53.443Z,31.82
2019-02-05T16:08:22.923Z,32.63
2019-02-05T16:10:53.062Z,32.27
2019-02-05T16:13:22.262Z,31.90
2019-02-05T16:15:51.510Z,31.42
2019-02-05T16:18:20.767Z,48.02
2019-02-05T16:20:50.086Z,30.85
2019-02-05T16:23:19.569Z,30.25
2019-02-05T16:25:48.820Z,30.88
2019-02-05T16:28:18.176Z,31.62
2019-02-05T16:30:47.438Z,32.48
2019-02-05T16:33:16.636Z,31.82
2019-02-05T16:35:45.948Z,30.48
2019-02-05T16:38:15.572Z,30.17
2019-02-05T16:40:45.132Z,32.03
2019-02-05T16:43:14.324Z,32.80
2019-02-05T16:45:43.624Z,32.38
2019-02-05T16:48:12.873Z,33.48
2019-02-05T16:50:44.786Z,34.00
2019-02-05T16:53:14.246Z,32.00
2019-02-05T16:55:43.515Z,34.18
2019-02-05T16:58:12.713Z,32.45
2019-02-05T17:00:41.963Z,35.03
2019-02-05T17:03:11.463Z,34.30
2019-02-05T17:05:42.250Z,32.33
2019-02-05T17:08:11.888Z,35.38
2019-02-05T17:10:41.177Z,33.10
2019-02-05T17:13:11.757Z,34.05
2019-02-05T17:16:00.436Z,31.60
2019-02-05T17:18:30.188Z,32.65
2019-02-05T17:20:59.382Z,34.20
2019-02-05T17:23:29.005Z,34.35
2019-02-05T17:25:58.266Z,34.10
2019-02-05T17:28:27.690Z,32.65
2019-02-05T17:30:59.813Z,33.85
2019-02-05T17:33:29.226Z,35.60
2019-02-05T17:35:58.759Z,34.38
2019-02-05T17:38:27.967Z,34.30
2019-02-05T17:40:57.229Z,36.17
2019-02-05T17:43:27.553Z,35.45
2019-02-05T17:45:56.799Z,34.78
2019-02-05T17:48:26.337Z,35.60
2019-02-05T17:50:56.095Z,36.25
2019-02-05T17:53:25.345Z,35.52
2019-02-05T17:55:54.598Z,35.25
2019-02-05T17:58:23.799Z,34.75
2019-02-05T18:01:00.985Z,34.78
2019-02-05T18:03:30.222Z,35.13
2019-02-05T18:05:59.540Z,33.95
2019-02-05T18:08:30.478Z,33.42
2019-02-05T18:10:59.727Z,34.03
2019-02-05T18:13:28.981Z,32.20
2019-02-05T18:15:59.776Z,31.48
2019-02-05T18:18:29.031Z,31.68
2019-02-05T18:20:58.268Z,30.32
2019-02-05T18:23:27.476Z,31.37
2019-02-05T18:25:56.789Z,29.57
2019-02-05T18:28:26.271Z,30.95
2019-02-05T18:30:56.042Z,31.52
2019-02-05T18:33:25.277Z,29.55
2019-02-05T18:35:54.762Z,31.15
2019-02-05T18:38:24.036Z,29.52
2019-02-05T18:40:53.240Z,29.75
2019-02-05T18:43:22.582Z,29.30
2019-02-05T18:45:52.115Z,30.37
2019-02-05T18:48:21.729Z,30.15
2019-02-05T18:50:51.060Z,28.40
2019-02-05T18:53:20.336Z,28.83
2019-02-05T18:55:49.553Z,28.40
2019-02-05T18:58:18.818Z,27.52
2019-02-05T19:00:48.346Z,27.55
2019-02-05T19:03:17.636Z,25.50
2019-02-05T19:05:47.356Z,25.48
2019-02-05T19:08:16.970Z,24.45
2019-02-05T19:10:46.190Z,22.95
2019-02-05T19:13:15.571Z,22.62
2019-02-05T19:15:45.156Z,23.23
2019-02-05T19:18:14.433Z,22.70
2019-02-05T19:20:43.770Z,22.90
2019-02-05T19:23:12.978Z,23.65
2019-02-05T19:25:49.365Z,23.18
2019-02-05T19:28:26.066Z,23.07
2019-02-05T19:30:56.914Z,23.52
2019-02-05T19:33:27.479Z,24.23
2019-02-05T19:35:56.903Z,24.67
2019-02-05T19:38:26.105Z,25.25
2019-02-05T19:40:57.459Z,24.07
2019-02-05T19:43:26.351Z,25.12
2019-02-05T19:46:13.171Z,24.63
2019-02-05T19:48:49.073Z,25.17
2019-02-05T19:51:18.210Z,25.75
2019-02-05T19:53:47.556Z,24.87
2019-02-05T19:56:16.757Z,26.55
2019-02-05T19:58:46.219Z,25.50
2019-02-05T20:01:18.394Z,25.25
2019-02-05T20:03:46.464Z,24.77
2019-02-05T20:06:15.699Z,25.10
2019-02-05T20:08:44.945Z,25.97
2019-02-05T20:11:14.149Z,25.43
2019-02-05T20:13:43.357Z,25.32
2019-02-05T20:16:12.695Z,27.15
2019-02-05T20:18:41.889Z,28.20
2019-02-05T20:21:11.168Z,27.43
2019-02-05T20:23:40.407Z,27.87
2019-02-05T20:26:09.615Z,29.35
2019-02-05T20:28:39.260Z,28.32
2019-02-05T20:31:08.460Z,28.36
2019-02-05T20:33:37.916Z,29.48
2019-02-05T20:36:07.115Z,30.12
2019-02-05T20:38:36.591Z,30.55
2019-02-05T20:41:06.030Z,29.70
2019-02-05T20:43:35.576Z,30.45
2019-02-05T20:46:04.781Z,30.08
2019-02-05T20:48:34.057Z,31.60
2019-02-05T20:51:04.175Z,32.45
2019-02-05T20:53:33.416Z,32.93
2019-02-05T20:56:02.640Z,31.60
2019-02-05T20:58:31.893Z,33.30
2019-02-05T21:01:01.443Z,34.25
2019-02-05T21:03:31.682Z,34.18
2019-02-05T21:06:00.950Z,34.78
2019-02-05T21:08:30.157Z,35.80
2019-02-05T21:10:59.399Z,35.52
2019-02-05T21:13:28.612Z,35.08
2019-02-05T21:15:57.861Z,35.63
2019-02-05T21:18:27.060Z,35.13
2019-02-05T21:20:56.402Z,36.68
2019-02-05T21:23:25.752Z,35.52
2019-02-05T21:25:54.967Z,37.08
2019-02-05T21:28:24.227Z,36.63
2019-02-05T21:30:53.434Z,35.90
2019-02-05T21:33:23.060Z,36.40
2019-02-05T21:35:52.401Z,36.53
2019-02-05T21:38:21.589Z,36.38
2019-02-05T21:40:50.834Z,37.85
2019-02-05T21:43:20.139Z,37.73
2019-02-05T21:45:49.423Z,37.08
2019-02-05T21:48:18.619Z,36.28
2019-02-05T21:50:48.013Z,36.03
2019-02-05T21:53:17.260Z,36.40
2019-02-05T21:55:46.589Z,37.00
2019-02-05T21:58:15.840Z,36.68
2019-02-05T22:00:46.040Z,37.70
2019-02-05T22:03:15.463Z,36.58
2019-02-05T22:05:45.172Z,37.65
2019-02-05T22:08:14.429Z,39.95
2019-02-05T22:10:43.768Z,39.48
2019-02-05T22:13:12.956Z,39.10
2019-02-05T22:15:42.197Z,39.13
2019-02-05T22:18:11.396Z,39.48
2019-02-05T22:20:40.632Z,39.67
2019-02-05T22:23:10.308Z,39.75
2019-02-05T22:25:39.550Z,39.83
2019-02-05T22:28:08.794Z,39.96
2019-02-05T22:30:38.870Z,41.48
2019-02-05T22:33:08.585Z,39.67
2019-02-05T22:35:37.821Z,40.28
2019-02-05T22:38:07.023Z,37.95
2019-02-05T22:40:36.216Z,39.27
2019-02-05T22:43:05.895Z,36.42
2019-02-05T22:45:35.079Z,39.03
2019-02-05T22:48:04.452Z,38.25
2019-02-05T22:50:35.905Z,39.20
2019-02-05T22:53:07.349Z,39.63
2019-02-05T22:55:36.704Z,38.13
2019-02-05T22:58:06.171Z,40.43
2019-02-05T23:00:51.058Z,38.60
2019-02-05T23:03:32.476Z,36.90
2019-02-05T23:06:20.047Z,36.57
2019-02-05T23:08:49.305Z,36.40
2019-02-05T23:11:22.095Z,38.05
2019-02-05T23:13:51.313Z,38.30
2019-02-05T23:16:20.622Z,38.60
2019-02-05T23:18:49.821Z,37.58
2019-02-05T23:21:19.057Z,39.43
2019-02-05T23:23:48.257Z,39.85
2019-02-05T23:26:17.876Z,38.55
2019-02-05T23:28:47.112Z,38.33
2019-02-05T23:31:16.394Z,37.73
2019-02-05T23:33:45.570Z,37.90
2019-02-05T23:36:14.787Z,37.17
2019-02-05T23:38:44.023Z,36.90
2019-02-05T23:41:13.733Z,36.70
2019-02-05T23:43:43.250Z,37.73
2019-02-05T23:46:12.494Z,37.45
2019-02-05T23:48:41.758Z,37.28
2019-02-05T23:51:11.332Z,35.05
2019-02-05T23:53:40.573Z,35.00
2019-02-05T23:56:10.177Z,36.00
2019-02-05T23:58:39.386Z,35.75
